Time;durP1;ratioP1;P1;durP2;ratioP2;P2;SDS_P1;SDS_P2;PMS_P1;PMS_P2;Temp;Humidity;BMP_temperature;BMP_pressure;BME280_temperature;BME280_humidity;BME280_pressure;Samples;Min_cycle;Max_cycle;Signal;HPM_P1;HPM_P2
2021/07/05 00:00:47;;;;;;;9.75;6.97;;;23.70;83.00;;;;;;5081401;28;20471;-91
2021/07/05 00:03:12;;;;;;;12.10;6.93;;;23.70;83.00;;;;;;5057191;28;20028;-88
2021/07/05 00:05:38;;;;;;;15.52;6.38;;;23.70;83.00;;;;;;5056812;28;20035;-88
2021/07/05 00:08:04;;;;;;;10.50;6.75;;;23.70;83.00;;;;;;5056860;28;20082;-91
2021/07/05 00:10:30;;;;;;;10.85;6.88;;;23.70;83.10;;;;;;5057281;28;20501;-92
2021/07/05 00:12:57;;;;;;;10.18;6.40;;;23.70;83.10;;;;;;5057145;28;20035;-92
2021/07/05 00:15:25;;;;;;;11.02;7.05;;;23.70;83.20;;;;;;5057388;28;20021;-91
2021/07/05 00:17:55;;;;;;;12.50;6.38;;;23.70;83.40;;;;;;5057531;28;20024;-93
2021/07/05 00:20:21;;;;;;;14.48;7.30;;;23.70;83.50;;;;;;5057461;28;20029;-91
2021/07/05 00:22:48;;;;;;;10.52;6.30;;;23.70;83.60;;;;;;5075559;28;20024;-91
2021/07/05 00:25:14;;;;;;;11.15;6.32;;;23.70;83.80;;;;;;5075153;28;20024;-91
2021/07/05 00:27:41;;;;;;;10.85;6.85;;;23.60;83.80;;;;;;5073919;28;20036;-90
2021/07/05 00:30:07;;;;;;;10.30;6.25;;;23.60;83.90;;;;;;5074815;28;20025;-93
2021/07/05 00:32:34;;;;;;;8.90;6.60;;;23.60;84.10;;;;;;5057069;28;20032;-90
2021/07/05 00:35:00;;;;;;;12.98;7.03;;;23.50;84.20;;;;;;5056834;28;20139;-91
2021/07/05 00:37:25;;;;;;;16.38;7.05;;;23.50;84.40;;;;;;5056657;28;20107;-91
2021/07/05 00:39:51;;;;;;;11.93;6.88;;;23.40;84.50;;;;;;5056805;28;20029;-91
2021/07/05 00:42:17;;;;;;;9.70;6.88;;;23.40;84.70;;;;;;5056731;28;20119;-92
2021/07/05 00:44:43;;;;;;;12.43;7.40;;;23.30;84.90;;;;;;5074386;28;20020;-92
2021/07/05 00:47:08;;;;;;;9.57;7.20;;;23.40;85.20;;;;;;5056596;28;20085;-92
2021/07/05 00:49:35;;;;;;;12.05;6.85;;;23.30;85.30;;;;;;5056749;28;20032;-92
2021/07/05 00:52:00;;;;;;;13.60;7.15;;;23.30;85.50;;;;;;5074227;28;20467;-91
2021/07/05 00:54:26;;;;;;;13.93;7.38;;;23.30;85.70;;;;;;5056226;28;20055;-87
2021/07/05 00:56:52;;;;;;;11.70;7.45;;;23.30;85.70;;;;;;5075732;28;20028;-87
2021/07/05 00:59:19;;;;;;;10.52;7.05;;;23.40;85.60;;;;;;5074795;28;20029;-87
2021/07/05 01:01:45;;;;;;;9.52;6.78;;;23.40;85.50;;;;;;5073782;28;20036;-88
2021/07/05 01:04:11;;;;;;;11.93;7.20;;;23.40;85.30;;;;;;5055486;28;20078;-88
2021/07/05 01:06:36;;;;;;;8.82;7.43;;;23.40;85.30;;;;;;5056067;28;20727;-89
2021/07/05 01:09:03;;;;;;;12.05;7.38;;;23.40;85.30;;;;;;5073987;28;20025;-89
2021/07/05 01:11:31;;;;;;;10.57;7.20;;;23.40;85.30;;;;;;5055884;28;20475;-88
2021/07/05 01:13:56;;;;;;;11.43;7.13;;;23.40;85.30;;;;;;5073815;28;20025;-89
2021/07/05 01:16:22;;;;;;;11.52;7.72;;;23.40;85.30;;;;;;5073860;28;20020;-89
2021/07/05 01:18:49;;;;;;;12.75;7.38;;;23.40;85.30;;;;;;5075847;28;20023;-88
2021/07/05 01:21:15;;;;;;;12.65;7.95;;;23.40;85.30;;;;;;5097828;28;20031;-88
2021/07/05 01:23:41;;;;;;;10.85;7.20;;;23.30;85.30;;;;;;5078133;28;20032;-89
2021/07/05 01:26:06;;;;;;;8.93;7.55;;;23.30;85.40;;;;;;5078761;28;20440;-88
2021/07/05 01:28:32;;;;;;;13.65;7.55;;;23.30;85.60;;;;;;5057081;28;20060;-90
2021/07/05 01:30:58;;;;;;;10.90;7.18;;;23.30;85.70;;;;;;5074517;28;20040;-90
2021/07/05 01:33:24;;;;;;;13.40;7.82;;;23.30;85.70;;;;;;5074593;28;20352;-90
2021/07/05 01:35:50;;;;;;;10.98;7.53;;;23.30;85.80;;;;;;5074663;28;20043;-91
2021/07/05 01:38:22;;;;;;;12.55;8.05;;;23.20;86.00;;;;;;5088073;28;20009;-90
2021/07/05 01:41:00;;;;;;;12.65;8.13;;;23.20;86.20;;;;;;5069660;28;20020;-89
2021/07/05 01:43:26;;;;;;;10.25;8.95;;;23.20;86.50;;;;;;5087564;28;20025;-89
2021/07/05 01:45:52;;;;;;;13.27;8.20;;;23.10;86.70;;;;;;5088297;28;20056;-88
2021/07/05 01:48:18;;;;;;;8.25;7.45;;;23.10;87.00;;;;;;5083108;28;20031;-89
2021/07/05 01:50:44;;;;;;;11.23;7.93;;;23.10;87.20;;;;;;5084276;28;20056;-90
2021/07/05 01:53:10;;;;;;;10.43;7.57;;;23.10;87.30;;;;;;5086064;28;20024;-90
2021/07/05 01:55:36;;;;;;;11.05;8.10;;;23.00;87.40;;;;;;5060648;28;20148;-88
2021/07/05 01:58:04;;;;;;;12.18;8.07;;;23.00;87.50;;;;;;5054503;28;20021;-89
2021/07/05 02:00:32;;;;;;;10.25;8.48;;;23.00;87.60;;;;;;5054793;28;20021;-90
2021/07/05 02:02:58;;;;;;;10.95;8.52;;;23.00;87.70;;;;;;5054171;28;20021;-89
2021/07/05 02:05:24;;;;;;;12.50;7.90;;;23.00;87.70;;;;;;5057218;28;20021;-89
2021/07/05 02:07:51;;;;;;;9.23;7.82;;;23.00;87.90;;;;;;5061018;28;20025;-89
2021/07/05 02:10:24;;;;;;;11.30;8.00;;;23.00;88.00;;;;;;5052789;28;20387;-89
2021/07/05 02:12:51;;;;;;;13.35;8.40;;;23.10;88.10;;;;;;5054755;28;20051;-89
2021/07/05 02:15:17;;;;;;;10.35;7.38;;;23.10;87.90;;;;;;5054340;28;20012;-89
2021/07/05 02:17:44;;;;;;;8.05;7.18;;;23.10;87.90;;;;;;5055788;28;20558;-89
2021/07/05 02:20:16;;;;;;;10.77;7.97;;;23.20;87.80;;;;;;5056780;28;20529;-88
2021/07/05 02:22:43;;;;;;;11.80;8.00;;;23.30;87.90;;;;;;5056600;28;20033;-89
2021/07/05 02:25:11;;;;;;;9.40;7.28;;;23.30;87.40;;;;;;5056742;28;20071;-89
2021/07/05 02:27:39;;;;;;;11.57;7.57;;;23.50;86.90;;;;;;5056977;28;20037;-88
2021/07/05 02:30:08;;;;;;;14.77;8.23;;;23.50;86.60;;;;;;5055460;28;20091;-87
2021/07/05 02:32:35;;;;;;;8.73;7.03;;;23.60;86.10;;;;;;5056691;28;20083;-89
2021/07/05 02:35:00;;;;;;;11.15;7.38;;;23.80;86.10;;;;;;5056893;28;20028;-89
2021/07/05 02:37:26;;;;;;;9.15;7.70;;;24.00;85.70;;;;;;5056654;28;20025;-89
2021/07/05 02:39:52;;;;;;;12.65;7.70;;;24.20;84.70;;;;;;5055279;28;20025;-89
2021/07/05 02:42:18;;;;;;;12.25;7.15;;;24.50;83.90;;;;;;5055249;28;20376;-90
2021/07/05 02:44:43;;;;;;;9.77;7.22;;;24.70;83.10;;;;;;5056506;28;20379;-90
2021/07/05 02:47:09;;;;;;;9.15;7.50;;;24.90;82.10;;;;;;5054927;28;20029;-89
2021/07/05 02:49:35;;;;;;;10.95;7.82;;;24.90;80.80;;;;;;5054846;28;20028;-89
2021/07/05 02:52:00;;;;;;;10.40;7.57;;;24.80;80.50;;;;;;5054564;28;20060;-89
2021/07/05 02:54:26;;;;;;;11.57;7.68;;;24.70;81.00;;;;;;5061491;28;20051;-89
2021/07/05 02:56:52;;;;;;;14.63;7.50;;;24.80;81.50;;;;;;5056668;28;20067;-88
2021/07/05 02:59:17;;;;;;;8.60;6.95;;;25.20;81.20;;;;;;5055049;28;20029;-88
2021/07/05 03:01:45;;;;;;;12.10;7.90;;;25.60;80.20;;;;;;5054644;28;20017;-89
2021/07/05 03:04:10;;;;;;;14.27;7.20;;;26.20;79.00;;;;;;5056040;28;20199;-88
2021/07/05 03:06:36;;;;;;;16.15;7.57;;;26.70;77.40;;;;;;5056428;28;20527;-89
2021/07/05 03:09:03;;;;;;;8.82;6.93;;;27.30;76.00;;;;;;5054624;28;20017;-89
2021/07/05 03:11:28;;;;;;;7.28;6.47;;;28.00;74.00;;;;;;5054048;28;20044;-89
2021/07/05 03:13:54;;;;;;;9.00;6.60;;;28.30;71.90;;;;;;5055346;28;20049;-89
2021/07/05 03:16:20;;;;;;;10.70;6.93;;;28.60;70.10;;;;;;5055499;28;20017;-89
2021/07/05 03:18:45;;;;;;;10.52;6.70;;;28.60;69.70;;;;;;5055911;28;20071;-92
2021/07/05 03:21:11;;;;;;;11.23;7.00;;;28.70;69.20;;;;;;5055140;28;20029;-91
2021/07/05 03:23:37;;;;;;;10.50;6.82;;;28.70;68.50;;;;;;5054913;28;20039;-92
2021/07/05 03:26:03;;;;;;;10.07;7.55;;;28.70;68.70;;;;;;5054867;28;20036;-92
2021/07/05 03:28:29;;;;;;;7.72;6.65;;;28.70;68.00;;;;;;5055798;28;20553;-93
2021/07/05 03:30:54;;;;;;;10.70;7.10;;;28.60;68.00;;;;;;5054544;28;20488;-94
2021/07/05 03:33:21;;;;;;;7.30;6.50;;;28.60;68.30;;;;;;5054214;28;20053;-93
2021/07/05 03:35:49;;;;;;;8.25;6.78;;;28.70;67.90;;;;;;5055621;28;20017;-89
2021/07/05 03:38:17;;;;;;;11.15;7.53;;;28.70;67.40;;;;;;5054749;28;20013;-88
2021/07/05 03:40:44;;;;;;;7.88;7.05;;;28.40;67.30;;;;;;5053691;28;20411;-90
2021/07/05 03:43:10;;;;;;;7.72;6.93;;;28.20;67.70;;;;;;5053388;28;20067;-91
2021/07/05 03:45:38;;;;;;;8.60;7.68;;;28.00;68.30;;;;;;5055352;28;20476;-89
2021/07/05 03:48:05;;;;;;;10.15;7.20;;;28.00;68.50;;;;;;5053790;28;20040;-89
2021/07/05 03:50:32;;;;;;;13.27;9.73;;;28.00;68.50;;;;;;5053695;28;20060;-89
2021/07/05 03:52:58;;;;;;;13.50;7.80;;;28.10;68.80;;;;;;5055469;28;20476;-90
2021/07/05 03:55:25;;;;;;;11.20;7.65;;;28.40;68.40;;;;;;5073287;28;20094;-90
2021/07/05 03:57:52;;;;;;;10.82;7.88;;;28.70;67.80;;;;;;5075556;28;20023;-92
2021/07/05 04:00:21;;;;;;;10.02;7.88;;;28.90;67.50;;;;;;5057648;28;20096;-90
2021/07/05 04:02:48;;;;;;;9.10;7.97;;;29.10;66.50;;;;;;5056867;28;20035;-90
2021/07/05 04:05:15;;;;;;;15.77;8.23;;;29.10;66.30;;;;;;5075038;28;20056;-91
2021/07/05 04:07:42;;;;;;;11.77;8.07;;;29.10;66.50;;;;;;5074771;28;20028;-90
2021/07/05 04:10:10;;;;;;;14.55;8.60;;;29.00;66.10;;;;;;5057287;28;20028;-91
2021/07/05 04:12:36;;;;;;;11.05;9.38;;;28.90;66.30;;;;;;5057289;28;20115;-93
2021/07/05 04:15:04;;;;;;;11.35;9.07;;;29.00;66.60;;;;;;5058312;28;20079;-93
2021/07/05 04:17:30;;;;;;;13.50;8.15;;;29.30;66.20;;;;;;5057478;28;20497;-91
2021/07/05 04:19:56;;;;;;;9.45;8.50;;;29.40;65.90;;;;;;5056927;28;20024;-86
2021/07/05 04:22:22;;;;;;;11.07;8.93;;;29.70;65.40;;;;;;5074680;28;20033;-91
2021/07/05 04:24:48;;;;;;;12.32;8.40;;;30.10;64.80;;;;;;5057116;28;20111;-93
2021/07/05 04:27:14;;;;;;;12.93;8.55;;;30.30;64.50;;;;;;5056874;28;20040;-90
2021/07/05 04:29:41;;;;;;;10.10;8.40;;;30.70;63.60;;;;;;5075190;28;20021;-93
2021/07/05 04:32:07;;;;;;;11.82;8.40;;;31.10;62.60;;;;;;5058131;28;20041;-93
2021/07/05 04:34:35;;;;;;;9.77;8.77;;;31.70;62.20;;;;;;5075025;28;20470;-93
2021/07/05 04:37:01;;;;;;;11.05;8.35;;;32.20;60.70;;;;;;5075121;28;20135;-92
2021/07/05 04:39:27;;;;;;;13.77;8.02;;;32.60;60.10;;;;;;5059860;28;20027;-89
2021/07/05 04:41:54;;;;;;;9.75;8.60;;;33.40;59.60;;;;;;5074829;28;20032;-88
2021/07/05 04:44:23;;;;;;;12.10;8.85;;;34.20;57.40;;;;;;5073933;28;20475;-88
2021/07/05 04:46:50;;;;;;;12.43;9.55;;;34.50;56.70;;;;;;5073927;28;20039;-88
2021/07/05 04:49:18;;;;;;;11.10;9.45;;;35.30;55.80;;;;;;5057346;28;20112;-87
2021/07/05 04:51:45;;;;;;;13.45;9.27;;;35.70;54.20;;;;;;5075233;28;20036;-88
2021/07/05 04:54:10;;;;;;;12.07;9.38;;;35.90;53.10;;;;;;5076616;28;20051;-88
2021/07/05 04:56:36;;;;;;;9.77;8.75;;;35.70;52.30;;;;;;5061453;28;20111;-86
2021/07/05 04:59:03;;;;;;;31.40;12.60;;;36.00;53.20;;;;;;5078255;28;20025;-89
2021/07/05 05:01:29;;;;;;;12.93;8.95;;;37.00;52.60;;;;;;5074162;28;20059;-87
2021/07/05 05:03:54;;;;;;;11.32;9.52;;;37.70;50.10;;;;;;5076415;28;20013;-85
2021/07/05 05:06:20;;;;;;;10.27;9.20;;;37.60;49.70;;;;;;5086292;28;20033;-87
2021/07/05 05:08:49;;;;;;;10.68;8.75;;;37.40;49.90;;;;;;5087010;28;20047;-85
2021/07/05 05:11:14;;;;;;;10.20;9.10;;;37.40;49.70;;;;;;5073633;28;20025;-88
2021/07/05 05:13:40;;;;;;;10.70;9.02;;;37.30;49.70;;;;;;5074501;28;20024;-87
2021/07/05 05:16:06;;;;;;;11.68;8.40;;;37.50;49.70;;;;;;5073628;28;20067;-88
2021/07/05 05:18:32;;;;;;;11.40;8.15;;;37.80;49.30;;;;;;5072618;28;20485;-86
2021/07/05 05:20:58;;;;;;;13.18;9.50;;;38.30;48.90;;;;;;5073184;28;20035;-88
2021/07/05 05:23:24;;;;;;;12.27;8.73;;;38.80;48.00;;;;;;5073214;28;20028;-88
2021/07/05 05:25:50;;;;;;;9.30;7.85;;;39.30;48.00;;;;;;5056861;28;20060;-88
2021/07/05 05:28:15;;;;;;;10.63;7.85;;;40.10;47.10;;;;;;5055520;28;20119;-89
2021/07/05 05:30:41;;;;;;;15.57;8.48;;;40.70;46.40;;;;;;5073528;28;20024;-88
2021/07/05 05:33:07;;;;;;;11.40;8.15;;;41.20;45.60;;;;;;5073274;28;20085;-87
2021/07/05 05:35:33;;;;;;;9.95;8.27;;;41.70;45.00;;;;;;5057356;28;20025;-90
2021/07/05 05:37:59;;;;;;;7.80;6.90;;;42.20;44.30;;;;;;5073259;28;20103;-91
2021/07/05 05:40:26;;;;;;;8.00;7.20;;;42.50;43.80;;;;;;5056497;28;20016;-89
2021/07/05 05:42:52;;;;;;;9.73;7.68;;;42.80;43.30;;;;;;5055634;28;20089;-91
2021/07/05 05:45:19;;;;;;;10.35;7.00;;;43.20;43.10;;;;;;5073817;28;20024;-90
2021/07/05 05:47:45;;;;;;;10.27;7.47;;;43.70;42.60;;;;;;5073590;28;20025;-89
2021/07/05 05:50:12;;;;;;;8.00;7.28;;;44.30;42.20;;;;;;5074251;28;20507;-89
2021/07/05 05:52:38;;;;;;;8.30;7.00;;;44.80;41.50;;;;;;5079490;28;20025;-88
2021/07/05 05:55:05;;;;;;;7.93;7.13;;;45.30;41.00;;;;;;5060273;28;20051;-86
2021/07/05 05:57:32;;;;;;;11.27;8.15;;;45.70;40.20;;;;;;5076140;28;20020;-85
2021/07/05 06:00:00;;;;;;;9.95;7.82;;;45.70;39.70;;;;;;5075921;28;20104;-82
2021/07/05 06:02:26;;;;;;;8.63;7.07;;;45.20;39.80;;;;;;5075281;28;20032;-83
2021/07/05 06:04:52;;;;;;;8.10;7.07;;;45.20;40.20;;;;;;5057167;28;20056;-83
2021/07/05 06:07:18;;;;;;;9.52;7.20;;;45.40;40.00;;;;;;5074897;28;20434;-83
2021/07/05 06:09:44;;;;;;;16.17;7.28;;;45.70;39.70;;;;;;5075392;28;20066;-82
2021/07/05 06:12:10;;;;;;;13.27;7.32;;;45.90;39.20;;;;;;5075032;28;20035;-84
2021/07/05 06:14:36;;;;;;;10.85;7.28;;;45.70;39.30;;;;;;5075034;28;20432;-83
2021/07/05 06:17:02;;;;;;;8.32;7.28;;;45.70;39.10;;;;;;5074858;28;20104;-83
2021/07/05 06:19:28;;;;;;;10.77;7.25;;;45.90;39.10;;;;;;5074605;28;20012;-82
2021/07/05 06:21:54;;;;;;;7.75;7.05;;;46.10;38.90;;;;;;5074679;28;20043;-83
2021/07/05 06:24:20;;;;;;;9.82;7.93;;;46.10;38.50;;;;;;5074308;28;20067;-83
2021/07/05 06:26:47;;;;;;;19.80;7.78;;;46.20;38.70;;;;;;5074849;28;20462;-82
2021/07/05 06:29:13;;;;;;;10.98;7.57;;;46.40;38.80;;;;;;5074243;28;20028;-84
2021/07/05 06:31:38;;;;;;;14.23;7.50;;;46.60;38.70;;;;;;5074612;28;20025;-83
2021/07/05 06:34:04;;;;;;;14.90;7.65;;;46.60;38.40;;;;;;5074367;28;20535;-83
2021/07/05 06:36:31;;;;;;;11.43;7.63;;;46.60;38.20;;;;;;5074671;28;20045;-85
2021/07/05 06:38:56;;;;;;;11.95;7.75;;;46.40;38.10;;;;;;5074826;28;20106;-84
2021/07/05 06:41:26;;;;;;;13.02;8.32;;;46.20;38.60;;;;;;5074530;28;20054;-84
2021/07/05 06:43:52;;;;;;;9.30;8.00;;;45.90;38.70;;;;;;5074336;28;20482;-82
2021/07/05 06:46:19;;;;;;;7.90;7.20;;;45.90;38.70;;;;;;5074123;28;20032;-82
2021/07/05 06:48:44;;;;;;;12.25;7.43;;;45.90;38.70;;;;;;5073939;28;20052;-83
2021/07/05 06:51:10;;;;;;;10.68;8.05;;;45.90;38.90;;;;;;5074433;28;20075;-82
2021/07/05 06:53:36;;;;;;;14.18;8.32;;;45.80;38.70;;;;;;5073733;28;20102;-82
2021/07/05 06:56:02;;;;;;;9.40;7.07;;;45.60;38.80;;;;;;5074452;28;20113;-84
2021/07/05 06:58:28;;;;;;;10.48;6.85;;;45.50;38.90;;;;;;5074854;28;20023;-82
2021/07/05 07:00:54;;;;;;;9.35;6.30;;;45.40;38.90;;;;;;5074252;28;20017;-82
2021/07/05 07:03:22;;;;;;;8.93;6.97;;;45.40;38.80;;;;;;5073615;28;20028;-82
2021/07/05 07:05:48;;;;;;;7.93;6.40;;;45.40;38.70;;;;;;5074227;28;20052;-82
2021/07/05 07:08:14;;;;;;;13.00;6.85;;;45.10;38.80;;;;;;5056534;28;20028;-82
2021/07/05 07:10:40;;;;;;;7.35;6.50;;;45.20;39.00;;;;;;5074919;28;20078;-82
2021/07/05 07:13:06;;;;;;;9.85;6.72;;;45.40;39.00;;;;;;5074493;28;20094;-83
2021/07/05 07:15:34;;;;;;;7.53;6.25;;;45.60;38.90;;;;;;5074435;28;20020;-83
2021/07/05 07:18:22;;;;;;;8.60;5.95;;;45.60;38.60;;;;;;5074368;28;20013;-82
2021/07/05 07:20:45;;;;;;;11.82;6.63;;;45.70;39.20;;;;;;5073721;28;20020;-82
2021/07/05 07:23:11;;;;;;;6.80;5.60;;;45.50;38.40;;;;;;5074216;28;20082;-82
2021/07/05 07:25:37;;;;;;;13.95;5.88;;;45.30;38.50;;;;;;5074012;28;20116;-82
2021/07/05 07:28:03;;;;;;;7.50;6.05;;;45.10;38.60;;;;;;5056083;28;20112;-83
2021/07/05 07:30:28;;;;;;;14.00;5.97;;;44.40;38.40;;;;;;5073892;28;20024;-83
2021/07/05 07:32:54;;;;;;;8.40;5.95;;;43.60;39.50;;;;;;5073727;28;20050;-83
2021/07/05 07:35:20;;;;;;;7.47;5.90;;;43.40;40.10;;;;;;5073816;28;20021;-82
2021/07/05 07:37:49;;;;;;;10.88;5.50;;;43.30;40.10;;;;;;5055252;28;20036;-83
2021/07/05 07:40:18;;;;;;;9.52;5.43;;;43.30;39.80;;;;;;5073800;28;20514;-83
2021/07/05 07:42:45;;;;;;;6.75;5.45;;;43.00;39.90;;;;;;5073730;28;20020;-82
2021/07/05 07:45:12;;;;;;;10.27;5.75;;;42.80;40.10;;;;;;5073905;28;20024;-82
2021/07/05 07:47:38;;;;;;;8.02;5.65;;;42.60;40.40;;;;;;5074050;28;20047;-83
2021/07/05 07:50:06;;;;;;;7.68;5.32;;;42.60;40.60;;;;;;5073520;28;20028;-83
2021/07/05 07:52:32;;;;;;;7.85;6.35;;;42.60;40.50;;;;;;5073566;28;20060;-82
2021/07/05 07:54:58;;;;;;;7.63;6.60;;;42.10;40.30;;;;;;5073085;28;20079;-82
2021/07/05 07:57:24;;;;;;;7.78;5.55;;;41.20;41.40;;;;;;5073182;28;20462;-81
2021/07/05 07:59:50;;;;;;;12.55;5.47;;;41.00;41.90;;;;;;5072704;28;20029;-81
2021/07/05 08:02:15;;;;;;;5.93;5.43;;;40.70;41.60;;;;;;5072323;28;20024;-84
2021/07/05 08:04:41;;;;;;;5.93;5.30;;;40.00;41.90;;;;;;5073416;28;20477;-84
2021/07/05 08:07:07;;;;;;;9.65;5.50;;;39.20;42.80;;;;;;5072946;28;20025;-83
2021/07/05 08:09:33;;;;;;;10.88;5.93;;;38.70;44.00;;;;;;5073224;28;20032;-86
2021/07/05 08:11:59;;;;;;;11.15;5.70;;;38.50;44.60;;;;;;5072397;28;21987;-82
2021/07/05 08:14:25;;;;;;;8.52;5.43;;;38.40;44.90;;;;;;5072113;28;20021;-82
2021/07/05 08:16:51;;;;;;;8.68;5.68;;;38.20;45.20;;;;;;5072532;28;20021;-83
2021/07/05 08:19:17;;;;;;;17.83;5.95;;;37.90;45.30;;;;;;5072644;28;20074;-81
2021/07/05 08:21:43;;;;;;;7.38;5.50;;;37.40;46.10;;;;;;5072193;28;20024;-80
2021/07/05 08:24:09;;;;;;;8.93;5.22;;;37.30;46.80;;;;;;5072506;28;20025;-85
2021/07/05 08:26:35;;;;;;;8.10;5.60;;;37.30;46.70;;;;;;5072609;28;20032;-80
2021/07/05 08:29:02;;;;;;;7.57;5.85;;;37.30;46.60;;;;;;5072160;28;20089;-81
2021/07/05 08:31:28;;;;;;;7.75;5.30;;;37.30;46.70;;;;;;5072019;28;20775;-80
2021/07/05 08:33:54;;;;;;;8.90;5.50;;;37.00;47.30;;;;;;5071498;28;20031;-78
2021/07/05 08:36:20;;;;;;;9.07;5.65;;;37.00;47.60;;;;;;5071775;28;20131;-78
2021/07/05 08:38:47;;;;;;;8.80;5.40;;;37.10;47.50;;;;;;5071906;28;20012;-79
2021/07/05 08:41:14;;;;;;;9.82;5.63;;;37.00;47.30;;;;;;5072392;28;20021;-80
2021/07/05 08:43:45;;;;;;;7.05;5.03;;;36.80;47.10;;;;;;5054396;28;20098;-80
2021/07/05 08:46:13;;;;;;;5.88;5.38;;;36.30;47.30;;;;;;5072453;28;20020;-80
2021/07/05 08:48:41;;;;;;;9.77;5.75;;;35.90;48.30;;;;;;5054240;28;20078;-81
2021/07/05 08:51:13;;;;;;;8.95;5.65;;;35.80;49.00;;;;;;5072305;28;20033;-80
2021/07/05 08:53:42;;;;;;;19.88;5.85;;;36.00;49.20;;;;;;5072192;28;20052;-80
2021/07/05 08:56:08;;;;;;;12.95;5.70;;;36.10;48.70;;;;;;5071630;28;20025;-81
2021/07/05 08:58:34;;;;;;;11.43;5.18;;;36.10;48.40;;;;;;5071685;28;20016;-80
2021/07/05 09:01:00;;;;;;;9.07;5.55;;;36.00;48.40;;;;;;5071809;28;20103;-80
2021/07/05 09:03:28;;;;;;;13.23;5.43;;;35.80;48.10;;;;;;5071037;28;20428;-79
2021/07/05 09:06:06;;;;;;;9.98;5.50;;;35.30;49.30;;;;;;5071120;28;20305;-80
2021/07/05 09:08:35;;;;;;;7.55;5.90;;;34.90;49.60;;;;;;5071059;28;20093;-79
2021/07/05 09:11:01;;;;;;;6.15;5.55;;;34.60;50.30;;;;;;5071200;28;20048;-78
2021/07/05 09:13:28;;;;;;;15.57;6.18;;;34.40;51.30;;;;;;5071207;28;20109;-79
2021/07/05 09:15:57;;;;;;;9.30;5.75;;;34.50;51.30;;;;;;5070555;28;20051;-79
2021/07/05 09:18:29;;;;;;;6.78;5.57;;;34.70;51.00;;;;;;5070060;28;20104;-80
2021/07/05 09:21:01;;;;;;;7.10;5.80;;;34.70;50.50;;;;;;5058952;28;20389;-81
2021/07/05 09:23:27;;;;;;;11.82;6.03;;;34.30;51.00;;;;;;5070927;28;20074;-78
2021/07/05 09:25:53;;;;;;;7.30;5.20;;;34.20;51.60;;;;;;5073608;28;20387;-80
2021/07/05 09:28:22;;;;;;;6.07;5.25;;;34.20;51.80;;;;;;5074870;28;20468;-79
2021/07/05 09:30:51;;;;;;;9.35;5.80;;;34.30;51.80;;;;;;5073950;28;20032;-81
2021/07/05 09:33:26;;;;;;;9.98;5.20;;;34.40;52.00;;;;;;5074901;28;20025;-82
2021/07/05 09:35:58;;;;;;;6.97;5.00;;;34.70;51.50;;;;;;5075192;28;20100;-81
2021/07/05 09:38:35;;;;;;;7.63;5.57;;;34.90;51.40;;;;;;5076390;28;20035;-83
2021/07/05 09:41:25;;;;;;;11.23;5.30;;;34.80;50.60;;;;;;5076230;28;20044;-82
2021/07/05 09:43:57;;;;;;;11.35;5.60;;;34.80;51.00;;;;;;5075554;28;20059;-84
2021/07/05 09:46:43;;;;;;;9.32;4.90;;;34.90;51.00;;;;;;5075234;28;20038;-84
2021/07/05 09:49:28;;;;;;;7.93;5.03;;;35.00;50.70;;;;;;5074021;28;20020;-84
2021/07/05 09:52:24;;;;;;;5.47;4.97;;;35.00;50.90;;;;;;5073738;28;20023;-85
2021/07/05 09:55:01;;;;;;;8.70;5.40;;;34.90;49.80;;;;;;5057054;28;20044;-85
2021/07/05 09:57:50;;;;;;;12.80;5.30;;;34.50;50.40;;;;;;5074587;28;20052;-85
2021/07/05 10:00:26;;;;;;;7.38;5.13;;;34.50;51.20;;;;;;5074773;28;20012;-81
2021/07/05 10:03:09;;;;;;;6.30;5.28;;;34.60;51.50;;;;;;5074618;28;20555;-81
2021/07/05 10:05:43;;;;;;;7.00;5.22;;;34.80;51.00;;;;;;5074628;28;20048;-81
2021/07/05 10:08:11;;;;;;;10.48;5.50;;;34.70;50.90;;;;;;5075715;28;20024;-82
2021/07/05 10:10:40;;;;;;;6.20;5.18;;;34.60;50.90;;;;;;5074619;28;20032;-83
2021/07/05 10:13:15;;;;;;;6.07;5.50;;;34.20;51.20;;;;;;5074360;28;20024;-82
2021/07/05 10:15:41;;;;;;;15.85;5.72;;;33.70;52.00;;;;;;5074795;28;20541;-81
2021/07/05 10:18:07;;;;;;;8.85;5.60;;;33.30;52.40;;;;;;5076813;28;20092;-83
2021/07/05 10:20:44;;;;;;;6.18;5.30;;;33.10;52.70;;;;;;5077158;28;20024;-86
2021/07/05 10:23:15;;;;;;;5.95;5.35;;;33.10;53.30;;;;;;5079503;28;20025;-86
2021/07/05 10:25:44;;;;;;;11.60;6.13;;;33.10;53.80;;;;;;5078718;28;20090;-84
2021/07/05 10:28:10;;;;;;;7.75;5.60;;;33.10;54.00;;;;;;5057454;28;20060;-85
2021/07/05 10:30:37;;;;;;;7.15;5.50;;;33.10;53.90;;;;;;5074895;28;20055;-82
2021/07/05 10:33:04;;;;;;;9.10;6.20;;;32.90;54.00;;;;;;5074787;28;20085;-84
2021/07/05 10:35:37;;;;;;;7.57;5.80;;;32.70;54.10;;;;;;5075010;28;20025;-84
2021/07/05 10:38:11;;;;;;;6.65;5.55;;;32.50;54.80;;;;;;5074065;28;20073;-84
2021/07/05 10:40:47;;;;;;;14.80;5.88;;;32.50;54.80;;;;;;5075486;28;20474;-85
2021/07/05 10:43:18;;;;;;;6.55;5.63;;;32.30;54.90;;;;;;5074531;28;20055;-85
2021/07/05 10:45:49;;;;;;;9.85;5.60;;;32.00;55.60;;;;;;5056883;28;20025;-85
2021/07/05 10:48:40;;;;;;;11.43;5.75;;;31.90;56.50;;;;;;5074937;28;20441;-87
2021/07/05 10:51:08;;;;;;;10.07;5.95;;;31.90;56.30;;;;;;5074678;28;20017;-85
2021/07/05 10:53:46;;;;;;;8.23;5.97;;;31.80;56.40;;;;;;5074377;28;20059;-84
2021/07/05 10:56:28;;;;;;;10.40;5.43;;;31.90;56.10;;;;;;5057488;28;20375;-88
2021/07/05 10:58:55;;;;;;;8.63;5.43;;;32.00;56.00;;;;;;5074993;28;20017;-85
2021/07/05 11:01:46;;;;;;;10.10;5.45;;;32.10;56.00;;;;;;5074999;28;20024;-85
2021/07/05 11:04:32;;;;;;;6.93;5.50;;;32.20;55.70;;;;;;5074373;28;20017;-85
2021/07/05 11:07:00;;;;;;;9.98;5.88;;;32.10;55.50;;;;;;5074437;28;20032;-86
2021/07/05 11:09:27;;;;;;;8.65;5.53;;;32.00;55.60;;;;;;5056724;28;20067;-86
2021/07/05 11:11:59;;;;;;;21.48;5.90;;;31.90;56.00;;;;;;5074542;28;20021;-85
2021/07/05 11:14:34;;;;;;;5.80;5.20;;;32.00;55.90;;;;;;5056512;28;20021;-85
2021/07/05 11:17:23;;;;;;;9.25;5.65;;;32.10;55.70;;;;;;5074145;28;20041;-83
2021/07/05 11:20:08;;;;;;;6.50;5.90;;;32.00;55.80;;;;;;5074349;28;20025;-84
2021/07/05 11:22:36;;;;;;;13.75;5.57;;;31.90;55.70;;;;;;5056504;28;20077;-84
2021/07/05 11:25:19;;;;;;;18.88;5.60;;;31.90;56.10;;;;;;5074514;28;20383;-84
2021/07/05 11:28:01;;;;;;;7.28;5.15;;;31.80;56.00;;;;;;5073140;28;20104;-83
2021/07/05 11:30:40;;;;;;;11.23;4.90;;;32.00;56.40;;;;;;5056177;28;20043;-85
2021/07/05 11:33:11;;;;;;;6.60;4.70;;;32.00;56.00;;;;;;5055022;28;20103;-86
2021/07/05 11:35:40;;;;;;;;;;;32.10;55.30;;;;;;5054288;28;20021;-86
2021/07/05 11:38:08;;;;;;;10.02;5.75;;;32.10;55.00;;;;;;5054881;28;19905;-86
2021/07/05 11:40:41;;;;;;;6.10;4.85;;;31.90;55.30;;;;;;5054554;28;20028;-84
2021/07/05 11:43:08;;;;;;;7.30;4.90;;;31.70;55.60;;;;;;5054481;28;20053;-84
2021/07/05 11:45:52;;;;;;;8.93;5.28;;;31.60;55.70;;;;;;5054250;28;20032;-86
2021/07/05 11:48:39;;;;;;;8.10;5.30;;;31.50;55.70;;;;;;5053407;28;20032;-83
2021/07/05 11:51:35;;;;;;;7.40;5.65;;;31.30;56.30;;;;;;5053960;28;20025;-84
2021/07/05 11:54:04;;;;;;;5.95;5.43;;;31.20;57.00;;;;;;5053436;28;20045;-84
2021/07/05 11:56:37;;;;;;;10.32;5.32;;;31.20;57.20;;;;;;5054249;28;20017;-87
2021/07/05 11:59:09;;;;;;;6.85;4.95;;;31.30;57.00;;;;;;5052962;28;20505;-84
2021/07/05 12:01:36;;;;;;;7.30;5.13;;;31.50;56.80;;;;;;5053365;28;20654;-84
2021/07/05 12:04:04;;;;;;;8.82;4.75;;;31.60;56.70;;;;;;5053498;28;20491;-83
2021/07/05 12:06:31;;;;;;;5.53;4.78;;;31.60;56.10;;;;;;5065337;28;20048;-84
2021/07/05 12:08:59;;;;;;;9.23;4.90;;;31.60;56.20;;;;;;5073066;28;20023;-84
2021/07/05 12:11:41;;;;;;;5.95;4.68;;;31.60;56.20;;;;;;5073550;28;20029;-86
2021/07/05 12:14:23;;;;;;;;;;;31.70;56.30;;;;;;5074821;28;20036;-83
2021/07/05 12:16:52;;;;;;;8.80;5.20;;;31.70;56.10;;;;;;5072968;28;19911;-84
2021/07/05 12:19:19;;;;;;;9.00;4.75;;;31.70;55.90;;;;;;5055669;28;20032;-83
2021/07/05 12:22:03;;;;;;;8.07;4.43;;;31.60;56.50;;;;;;5073411;28;20024;-85
2021/07/05 12:24:50;;;;;;;12.52;5.00;;;31.50;57.10;;;;;;5072969;28;20831;-86
2021/07/05 12:27:35;;;;;;;15.57;4.95;;;31.60;57.00;;;;;;5072917;28;20116;-85
2021/07/05 12:30:04;;;;;;;6.57;4.97;;;31.60;57.40;;;;;;5072844;28;20475;-83
2021/07/05 12:32:37;;;;;;;8.55;5.47;;;31.70;57.40;;;;;;5072442;28;20060;-83
2021/07/05 12:35:11;;;;;;;8.20;5.32;;;31.80;57.20;;;;;;5073162;28;20790;-84
2021/07/05 12:37:41;;;;;;;22.92;13.07;;;31.70;56.80;;;;;;5072887;28;20348;-84
2021/07/05 12:40:12;;;;;;;9.20;5.90;;;31.70;57.10;;;;;;5073006;28;20088;-84
2021/07/05 12:43:05;;;;;;;5.90;5.30;;;31.60;57.30;;;;;;5055053;28;20028;-89
2021/07/05 12:45:51;;;;;;;10.93;5.00;;;31.60;57.10;;;;;;5062692;28;20545;-86
2021/07/05 12:48:29;;;;;;;6.07;5.05;;;31.60;57.30;;;;;;5072471;28;20033;-86
2021/07/05 12:51:06;;;;;;;7.45;4.95;;;31.60;57.60;;;;;;5073128;28;20032;-86